Volcan Mountain (221) Station Data

Red Flag Warning: No
Fire Weather Zone: 258
SDGE Region: Ramona
Lat/Lon: 33.103/-116.58

Observations

Time Wind Speed/Gust Temp(F) RH Fuel Moist Fuel Temp(F) Dewpt(F) Tmax(F) Tmin(F) Accum Precip 10-min Precip SL Press(mb)
2/27 11:40pm 245 32 G 47 36° 100% - - 36° 41.7° 34.2° - - 1009.0
2/27 11:20pm 252 27 G 37 37° 100% - - 37° 41.7° 34.2° - - 1010.0
2/27 11:10pm 249 27 G 41 37° 100% - - 37° 41.7° 34.2° - - 1010.0
2/27 11:00pm 246 31 G 49 38° 100% - - 38° 41.7° 34.2° - - 1009.0
2/27 10:50pm 240 35 G 51 38° 100% - - 38° 41.7° 34.2° - - 1008.0
2/27 10:40pm 237 34 G 56 38° 100% - - 38° 41.7° 34.2° - - 1008.0
2/27 10:30pm 235 28 G 45 38° 100% - - 38° 41.7° 34.2° - - 1009.0
2/27 10:20pm 235 28 G 42 39° 100% - - 39° 41.7° 34.2° - - 1008.0
2/27 10:10pm 231 24 G 42 39° 100% - - 39° 41.7° 34.2° - - 1009.0
2/27 10:00pm 227 20 G 43 39° 100% - - 39° 41.7° 34.2° - - 1009.0
2/27 9:50pm 228 20 G 39 39° 100% - - 39° 41.7° 34.2° - - 1009.0
2/27 9:40pm 226 19 G 32 39° 100% - - 39° 41.7° 34.2° - - 1009.0
2/27 9:30pm 225 18 G 35 39° 100% - - 39° 41.7° 34.2° - - 1009.0
2/27 9:20pm 231 22 G 36 39° 100% - - 39° 41.7° 34.2° - - 1009.0
2/27 9:10pm 232 23 G 40 39° 100% - - 39° 41.7° 34.2° - - 1009.0
2/27 9:00pm 224 18 G 37 39° 100% - - 39° 41.7° 34.2° - - 1009.0
2/27 8:50pm 229 20 G 35 38° 100% - - 38° 41.7° 34.2° - - 1009.0
2/27 8:40pm 229 20 G 31 38° 100% - - 38° 41.7° 34.2° - - 1010.0
2/27 8:30pm 226 17 G 29 38° 100% - - 38° 41.7° 34.2° - - 1010.0
2/27 8:20pm 226 16 G 27 38° 100% - - 38° 41.7° 34.2° - - 1010.0
2/27 8:10pm 222 16 G 32 38° 100% - - 38° 41.7° 34.2° - - 1010.0
2/27 8:00pm 224 16 G 28 38° 100% - - 38° 41.7° 34.2° - - 1010.0
2/27 7:50pm 223 18 G 30 38° 100% - - 38° 41.7° 34.2° - - 1010.0
2/27 7:40pm 223 19 G 30 38° 100% - - 38° 41.7° 34.2° - - 1009.0
2/27 7:30pm 221 18 G 31 38° 100% - - 38° 41.7° 34.2° - - 1009.0
2/27 7:20pm 229 18 G 28 38° 100% - - 38° 41.7° 34.2° - - 1010.0
2/27 7:10pm 227 19 G 33 38° 100% - - 38° 41.7° 34.2° - - 1010.0
2/27 7:00pm 230 20 G 33 38° 100% - - 38° 41.7° 34.2° - - 1009.0
2/27 6:50pm 228 17 G 28 38° 100% - - 38° 41.7° 34.2° - - 1010.0
2/27 6:40pm 225 17 G 28 38° 100% - - 38° 41.7° 34.2° - - 1010.0
2/27 6:30pm 223 16 G 29 38° 100% - - 38° 41.7° 34.2° - - 1010.0
2/27 6:20pm 225 17 G 28 38° 100% - - 38° 41.7° 34.2° - - 1010.0
2/27 6:10pm 224 17 G 30 38° 100% - - 38° 41.7° 34.2° - - 1010.0
2/27 6:00pm 224 17 G 30 38° 100% - - 38° 41.7° 34.2° - - 1010.0
2/27 5:50pm 227 19 G 36 38° 100% - - 38° 41.7° 34.2° - - 1009.0
2/27 5:40pm 224 18 G 33 38° 100% - - 38° 41.7° 34.2° - - 1009.0
2/27 5:30pm 226 20 G 35 38° 100% - - 38° 41.7° 34.2° - - 1009.0
2/27 5:20pm 226 17 G 30 39° 100% - - 39° 41.7° 34.2° - - 1010.0
2/27 5:10pm 224 19 G 32 38° 100% - - 38° 41.7° 34.2° - - 1009.0
2/27 5:00pm 228 20 G 37 38° 100% - - 38° 41.7° 34.2° - - 1009.0
2/27 4:50pm 220 17 G 32 38° 100% - - 38° 41.7° 34.2° - - 1010.0
2/27 4:40pm 223 16 G 27 38° 100% - - 38° 41.7° 34.2° - - 1010.0
2/27 4:30pm 225 15 G 34 38° 100% - - 38° 41.7° 34.2° - - 1010.0
2/27 4:20pm 222 16 G 27 38° 100% - - 38° 41.7° 34.2° - - 1010.0
2/27 4:10pm 223 17 G 32 38° 100% - - 38° 41.7° 34.2° - - 1010.0
2/27 4:00pm 223 17 G 32 38° 100% - - 38° 41.7° 34.2° - - 1010.0
2/27 3:50pm 223 19 G 32 38° 100% - - 38° 41.7° 34.2° - - 1010.0
2/27 3:40pm 225 20 G 35 38° 100% - - 38° 41.7° 34.2° - - 1010.0
2/27 3:30pm 222 20 G 35 38° 100% - - 38° 41.7° 34.2° - - 1010.0
2/27 3:20pm 224 21 G 35 39° 100% - - 39° 41.7° 34.2° - - 1010.0
2/27 3:10pm 224 18 G 32 39° 100% - - 39° 41.7° 34.2° - - 1010.0
2/27 3:00pm 220 18 G 34 39° 100% - - 39° 41.7° 34.2° - - 1010.0
2/27 2:50pm 220 20 G 38 39° 100% - - 39° 41.7° 34.2° - - 1009.0
2/27 2:40pm 222 20 G 37 39° 100% - - 39° 41.7° 34.2° - - 1010.0
2/27 2:30pm 222 21 G 37 40° 100% - - 40° 41.7° 34.2° - - 1009.0
2/27 2:20pm 215 15 G 32 40° 100% - - 40° 41.7° 34.2° - - 1010.0
2/27 2:10pm 222 17 G 31 40° 100% - - 40° 41.7° 34.2° - - 1010.0
2/27 2:00pm 224 18 G 31 40° 100% - - 40° 41.7° 34.2° - - 1010.0
2/27 1:50pm 223 20 G 35 40° 100% - - 40° 41.7° 34.2° - - 1010.0
2/27 1:40pm 221 20 G 40 40° 100% - - 40° 41.7° 34.2° - - 1009.0
2/27 1:30pm 223 19 G 36 40° 100% - - 40° 41.7° 34.2° - - 1009.0
2/27 1:20pm 221 18 G 32 40° 100% - - 40° 41.7° 34.2° - - 1010.0
2/27 1:10pm 221 17 G 33 40° 100% - - 40° 41.7° 34.2° - - 1010.0
2/27 1:00pm 214 16 G 29 40° 100% - - 40° 41.7° 34.2° - - 1010.0
2/27 12:50pm 217 19 G 37 40° 100% - - 40° 41.7° 34.2° - - 1010.0
2/27 12:40pm 222 19 G 39 40° 100% - - 40° 41.7° 34.2° - - 1010.0
2/27 12:30pm 222 18 G 33 40° 100% - - 40° 41.7° 34.2° - - 1011.0
2/27 12:20pm 221 17 G 31 40° 100% - - 40° 41.7° 34.2° - - 1011.0
2/27 12:10pm 225 17 G 37 40° 100% - - 40° 41.7° 34.2° - - 1011.0
2/27 12:00pm 223 17 G 31 40° 100% - - 40° 41.7° 34.2° - - 1012.0
2/27 11:50am 226 18 G 31 40° 100% - - 40° 41.7° 34.2° - - 1012.0
2/27 11:40am 226 18 G 30 40° 100% - - 40° 41.7° 34.2° - - 1012.0
2/27 11:30am 225 19 G 33 40° 100% - - 40° 41.7° 34.2° - - 1012.0
2/27 11:20am 222 19 G 31 40° 100% - - 40° 41.7° 34.2° - - 1012.0
2/27 11:10am 224 20 G 34 40° 100% - - 40° 41.7° 34.2° - - 1012.0
2/27 11:00am 226 21 G 34 40° 100% - - 40° 41.7° 34.2° - - 1012.0
2/27 10:50am 228 22 G 36 40° 100% - - 40° 41.7° 34.2° - - 1011.0
2/27 10:40am 224 22 G 52 40° 100% - - 40° 41.7° 34.2° - - 1011.0
2/27 10:30am 227 21 G 36 40° 100% - - 40° 41.7° 34.2° - - 1011.0
2/27 10:20am 231 25 G 45 41° 100% - - 41° 41.7° 34.2° - - 1011.0
2/27 10:10am 230 25 G 41 41° 100% - - 41° 41.7° 34.2° - - 1011.0
2/27 10:00am 233 22 G 37 41° 100% - - 41° 41.7° 34.2° - - 1011.0
2/27 9:50am 238 21 G 32 41° 100% - - 41° 41.7° 34.2° - - 1012.0
2/27 9:40am 236 17 G 29 41° 100% - - 41° 41.7° 34.2° - - 1012.0
2/27 9:30am 230 14 G 23 41° 100% - - 41° 41.7° 34.2° - - 1012.0
2/27 9:20am 232 17 G 26 41° 100% - - 41° 41.7° 34.2° - - 1012.0
2/27 9:10am 230 15 G 25 41° 100% - - 41° 41.7° 34.2° - - 1012.0
2/27 9:00am 224 13 G 30 41° 100% - - 41° 41.7° 34.2° - - 1012.0
2/27 8:50am 220 15 G 31 41° 100% - - 41° 41.7° 34.2° - - 1012.0
2/27 8:40am 227 17 G 35 41° 100% - - 41° 41.7° 34.2° - - 1012.0
2/27 8:30am 226 16 G 34 41° 100% - - 41° 41.7° 34.2° - - 1012.0
2/27 8:20am 223 15 G 29 41° 100% - - 41° 41.7° 34.2° - - 1012.0
2/27 8:10am 218 14 G 28 41° 100% - - 41° 41.7° 34.2° - - 1011.0
2/27 8:00am 231 19 G 32 41° 100% - - 41° 41.7° 34.2° - - 1011.0
2/27 7:50am 221 14 G 29 41° 100% - - 41° 41.7° 34.2° - - 1011.0
2/27 7:40am 227 18 G 29 41° 100% - - 41° 41.7° 34.2° - - 1011.0
2/27 7:30am 226 18 G 37 41° 100% - - 41° 41.7° 34.2° - - 1011.0
2/27 7:20am 225 20 G 34 41° 100% - - 41° 41.4° 34.2° - - 1010.0
2/27 7:10am 226 18 G 31 41° 100% - - 41° 41.2° 34.2° - - 1011.0
2/27 7:00am 222 18 G 32 41° 100% - - 41° 41° 34.2° - - 1011.0
2/27 6:50am 224 19 G 36 40° 100% - - 40° 41° 34.2° - - 1011.0
2/27 6:40am 227 19 G 34 40° 100% - - 40° 40.9° 34.2° - - 1011.0
2/27 6:30am 226 19 G 34 40° 100% - - 40° 40.9° 34.2° - - 1011.0
2/27 6:20am 228 17 G 30 40° 100% - - 40° 40.9° 34.2° - - 1011.0
2/27 6:10am 224 18 G 31 40° 100% - - 40° 40.9° 34.2° - - 1011.0
2/27 6:00am 226 19 G 34 40° 100% - - 40° 40.9° 34.2° - - 1011.0
2/27 5:50am 228 21 G 31 40° 100% - - 40° 40.9° 34.2° - - 1010.0
2/27 5:40am 222 18 G 35 40° 100% - - 40° 40.9° 34.2° - - 1010.0
2/27 5:30am 222 18 G 34 40° 100% - - 40° 40.8° 34.2° - - 1010.0
2/27 5:20am 222 17 G 30 40° 100% - - 40° 40.7° 34.2° - - 1010.0
2/27 5:10am 223 19 G 31 40° 100% - - 40° 40.7° 34.2° - - 1010.0
2/27 5:00am 221 20 G 37 40° 100% - - 40° 40.7° 34.2° - - 1010.0
2/27 4:50am 224 19 G 32 40° 100% - - 40° 40.5° 34.2° - - 1010.0
2/27 4:40am 226 21 G 35 40° 100% - - 40° 40.4° 34.2° - - 1010.0
2/27 4:30am 225 21 G 32 40° 100% - - 40° 40.3° 34.2° - - 1010.0
2/27 4:20am 227 21 G 32 40° 100% - - 40° 40° 34.2° - - 1011.0
2/27 4:10am 228 22 G 34 39° 100% - - 39° 39.8° 34.2° - - 1011.0
2/27 4:00am 230 24 G 35 39° 100% - - 39° 39.8° 34.2° - - 1010.0
2/27 3:50am 235 26 G 35 39° 100% - - 39° 39.5° 34.2° - - 1010.0
2/27 3:40am 238 28 G 41 39° 100% - - 39° 39.3° 34.2° - - 1010.0
2/27 3:30am 238 29 G 40 39° 100% - - 39° 39.2° 34.2° - - 1010.0
2/27 3:20am 239 29 G 42 39° 100% - - 39° 39.2° 34.2° - - 1010.0
2/27 3:10am 237 29 G 38 38° 100% - - 38° 38.8° 34.2° - - 1010.0
2/27 3:00am 240 29 G 46 38° 100% - - 38° 38.7° 34.2° - - 1010.0
2/27 2:50am 240 32 G 43 38° 100% - - 38° 38.7° 34.2° - - 1010.0
2/27 2:40am 240 32 G 46 38° 100% - - 38° 38.3° 34.2° - - 1010.0
2/27 2:30am 239 35 G 47 38° 100% - - 38° 38.1° 34.2° - - 1010.0
2/27 2:20am 241 36 G 50 38° 100% - - 37° 38° 34.2° - - 1010.0
2/27 2:10am 241 36 G 48 37° 100% - - 37° 37.8° 34.2° - - 1010.0
2/27 2:00am 242 35 G 46 37° 100% - - 37° 37.8° 34.2° - - 1010.0
2/27 1:50am 240 35 G 49 37° 100% - - 37° 37.6° 34.2° - - 1010.0
2/27 1:40am 241 37 G 53 37° 100% - - 37° 37.3° 34.2° - - 1010.0
2/27 1:30am 242 36 G 55 37° 100% - - 37° 37.3° 34.2° - - 1010.0
2/27 1:20am 240 38 G 50 37° 100% - - 36° 37° 34.2° - - 1010.0
2/27 1:10am 242 38 G 52 36° 100% - - 36° 36.7° 34.2° - - 1010.0
2/27 1:00am 242 42 G 56 36° 100% - - 36° 36.4° 34.2° - - 1010.0
2/27 12:50am 243 44 G 59 36° 100% - - 36° 36.4° 34.2° - - 1010.0
2/27 12:40am 245 44 G 62 35° 100% - - 35° 36° 34.2° - - 1010.0
2/27 12:30am 242 44 G 59 35° 100% - - 35° 35.5° 34.2° - - 1010.0
2/27 12:20am 244 45 G 58 35° 100% - - 35° 35.3° 34.2° - - 1010.0
2/27 12:10am 244 46 G 62 35° 100% - - 35° 35.3° 34.2° - - 1010.0
2/27 12:00am 243 45 G 60 34° 100% - - 34° 35.3° 29.5° - - 1010.0
2/26 11:50pm 245 46 G 60 34° 100% - - 34° 35.3° 29.5° - - 1010.0
2/26 11:40pm 242 46 G 60 33° 100% - - 33° 35.3° 29.5° - - 1010.0
2/26 11:30pm 242 46 G 62 32° 100% - - 32° 35.3° 29.5° - - 1009.0
2/26 11:20pm 244 45 G 59 32° 100% - - 32° 35.3° 29.5° - - 1009.0
2/26 11:10pm 242 41 G 56 32° 100% - - 32° 35.3° 29.5° - - 1010.0
2/26 11:00pm 245 35 G 54 32° 100% - - 32° 35.3° 29.5° - - 1010.0
2/26 10:50pm 245 23 G 31 32° 100% - - 31° 35.3° 29.5° - - 1010.0
2/26 10:40pm 247 25 G 33 31° 100% - - 31° 35.3° 29.5° - - 1010.0
2/26 10:30pm 246 26 G 35 31° 100% - - 31° 35.3° 29.5° - - 1011.0
2/26 10:20pm 245 30 G 41 31° 100% - - 31° 35.3° 29.5° - - 1011.0
2/26 10:10pm 245 35 G 50 31° 100% - - 31° 35.3° 29.5° - - 1011.0
2/26 10:00pm 246 32 G 55 31° 100% - - 31° 35.3° 29.5° - - 1011.0
2/26 9:50pm 248 27 G 37 31° 100% - - 31° 35.3° 29.5° - - 1011.0
2/26 9:40pm 249 29 G 40 31° 100% - - 31° 35.3° 29.5° - - 1011.0
2/26 9:30pm 250 31 G 42 31° 100% - - 31° 35.3° 29.5° - - 1011.0
2/26 9:20pm 247 34 G 48 32° 100% - - 32° 35.3° 29.5° - - 1011.0
2/26 9:10pm 249 33 G 48 32° 100% - - 31° 35.3° 29.5° - - 1012.0
2/26 9:00pm 248 35 G 48 31° 100% - - 31° 35.3° 29.5° - - 1012.0
2/26 8:50pm 244 39 G 51 31° 100% - - 31° 35.3° 29.5° - - 1012.0
2/26 8:40pm 245 38 G 51 32° 100% - - 32° 35.3° 29.5° - - 1012.0
2/26 8:30pm 245 39 G 53 32° 100% - - 32° 35.3° 29.5° - - 1012.0
2/26 8:20pm 246 41 G 55 31° 100% - - 31° 35.3° 29.5° - - 1012.0
2/26 8:10pm 244 42 G 57 31° 100% - - 31° 35.3° 29.5° - - 1012.0
2/26 8:00pm 246 38 G 55 32° 100% - - 32° 35.3° 29.5° - - 1012.0
2/26 7:50pm 245 39 G 55 32° 100% - - 32° 35.3° 29.5° - - 1012.0
2/26 7:40pm 247 38 G 52 31° 100% - - 31° 35.3° 29.5° - - 1013.0
2/26 7:30pm 247 38 G 50 32° 100% - - 32° 35.3° 29.5° - - 1013.0
2/26 7:20pm 248 37 G 50 32° 100% - - 32° 35.3° 29.5° - - 1012.0
2/26 7:10pm 251 38 G 50 32° 100% - - 32° 35.3° 29.5° - - 1012.0
2/26 7:00pm 247 38 G 52 32° 100% - - 32° 35.3° 29.5° - - 1012.0
2/26 6:50pm 249 38 G 48 32° 100% - - 32° 35.3° 29.5° - - 1012.0
2/26 6:40pm 250 40 G 53 32° 100% - - 32° 35.3° 29.5° - - 1012.0
2/26 6:30pm 250 39 G 51 32° 100% - - 32° 35.3° 29.5° - - 1012.0
2/26 6:20pm 249 39 G 54 32° 100% - - 32° 35.3° 29.5° - - 1012.0
2/26 6:10pm 247 40 G 54 33° 100% - - 33° 35.3° 29.5° - - 1012.0
2/26 6:00pm 245 39 G 53 33° 100% - - 33° 35.3° 29.5° - - 1012.0
2/26 5:50pm 247 40 G 53 33° 100% - - 33° 35.3° 29.5° - - 1012.0
2/26 5:40pm 246 41 G 56 33° 100% - - 33° 35.3° 29.5° - - 1012.0
2/26 5:30pm 245 39 G 54 33° 100% - - 33° 35.3° 29.5° - - 1012.0
2/26 5:20pm 246 41 G 55 33° 100% - - 33° 35.3° 29.5° - - 1011.0
2/26 5:10pm 248 40 G 53 33° 100% - - 33° 35.3° 29.5° - - 1011.0
2/26 5:00pm 247 39 G 53 33° 100% - - 33° 35.3° 29.5° - - 1012.0